createdAt,value
2019-01-09T06:35:01.309Z,0.1
2019-01-09T06:38:01.115Z,0.2
2019-01-09T06:39:01.087Z,0.3
2019-01-09T06:41:01.271Z,0.4
2019-01-09T06:42:01.088Z,0.5
2019-01-09T06:44:01.089Z,0.7
2019-01-09T06:45:01.247Z,0.8
2019-01-09T06:46:01.567Z,0.9
2019-01-09T06:47:01.086Z,1.1
2019-01-09T06:48:01.086Z,1.3
2019-01-09T06:49:01.086Z,1.5
2019-01-09T06:50:01.088Z,1.7
2019-01-09T06:51:01.228Z,1.9
2019-01-09T06:52:01.087Z,2.2
2019-01-09T06:53:02.119Z,2.6
2019-01-09T06:54:01.094Z,3.1
2019-01-09T06:55:01.099Z,3.7
2019-01-09T06:56:01.243Z,4.4
2019-01-09T06:57:01.949Z,5.3
2019-01-09T06:58:01.126Z,6.3
2019-01-09T06:59:01.091Z,7.4
2019-01-09T07:00:01.091Z,8.7
2019-01-09T07:01:01.228Z,10.1
2019-01-09T07:02:01.089Z,11.7
2019-01-09T07:03:01.087Z,13.4
2019-01-09T07:04:01.087Z,15.3
2019-01-09T07:05:01.155Z,17.3
2019-01-09T07:06:01.358Z,19.9
2019-01-09T07:07:01.089Z,23.1
2019-01-09T07:08:01.089Z,26.3
2019-01-09T07:09:01.154Z,30.0
2019-01-09T07:10:01.321Z,34.3
2019-01-09T07:11:01.271Z,38.6
2019-01-09T07:12:01.095Z,43.9
2019-01-09T07:13:01.093Z,50.3
2019-01-09T07:14:01.095Z,57.5
2019-01-09T07:15:01.096Z,64.7
2019-01-09T07:16:01.434Z,72.5
2019-01-09T07:17:01.092Z,81.2
2019-01-09T07:18:01.097Z,92.3
2019-01-09T07:19:01.094Z,104.7
2019-01-09T07:20:01.094Z,117.9
2019-01-09T07:21:01.303Z,132.9
2019-01-09T07:22:01.094Z,148.2
2019-01-09T07:23:01.093Z,164.3
2019-01-09T07:24:01.093Z,181.6
2019-01-09T07:25:06.102Z,203.6
2019-01-09T07:26:01.234Z,229.5
2019-01-09T07:27:01.716Z,260.4
2019-01-09T07:28:01.107Z,299.7
2019-01-09T07:29:01.106Z,345.1
2019-01-09T07:30:06.111Z,387.1
2019-01-09T07:31:01.239Z,428.1
2019-01-09T07:32:01.099Z,471.3
2019-01-09T07:33:01.101Z,511.9
2019-01-09T07:34:01.101Z,551.5
2019-01-09T07:35:01.099Z,595.4
2019-01-09T07:37:01.224Z,661.3
2019-01-09T07:38:01.095Z,725.2
2019-01-09T07:39:01.084Z,805.9
2019-01-09T07:40:06.091Z,900.4
2019-01-09T07:41:01.089Z,993.5
2019-01-09T07:42:01.261Z,1086.6
2019-01-09T07:43:01.086Z,1187.7
2019-01-09T07:44:01.110Z,1296.5
2019-01-09T07:45:01.087Z,1417.4
2019-01-09T07:46:01.090Z,1555.9
2019-01-09T07:47:01.230Z,1710.0
2019-01-09T07:48:01.089Z,1871.6
2019-01-09T07:49:01.121Z,2047.3
2019-01-09T07:50:01.086Z,2235.5
2019-01-09T07:51:01.084Z,2429.5
2019-01-09T07:52:01.231Z,2609.5
2019-01-09T07:53:01.085Z,2811.5
2019-01-09T07:54:01.084Z,3014.5
2019-01-09T07:55:06.183Z,3207.1
2019-01-09T07:56:01.090Z,3403.1
2019-01-09T07:57:01.255Z,3604.3
2019-01-09T07:58:01.090Z,3806.3
2019-01-09T07:59:01.091Z,4012.1
2019-01-09T08:00:01.087Z,4223.2
2019-01-09T08:01:01.086Z,4434.6
2019-01-09T08:02:01.229Z,4644.5
2019-01-09T08:03:01.087Z,4854.0
2019-01-09T08:04:01.088Z,5025.5
2019-01-09T08:05:02.427Z,5176.4
2019-01-09T08:06:01.090Z,5348.3
2019-01-09T08:07:01.228Z,5540.3
2019-01-09T08:08:01.089Z,5751.3
2019-01-09T08:09:01.094Z,5971.5
2019-01-09T08:10:01.093Z,6196.5
2019-01-09T08:11:01.089Z,6419.9
2019-01-09T08:12:01.242Z,6628.7
2019-01-09T08:13:01.094Z,6856.8
2019-01-09T08:14:01.091Z,7054.9
2019-01-09T08:15:01.093Z,7219.0
2019-01-09T08:16:01.119Z,7378.7
2019-01-09T08:17:01.233Z,7513.4
2019-01-09T08:18:01.091Z,7743.8
2019-01-09T08:19:01.094Z,8008.9
2019-01-09T08:20:01.127Z,8262.2
2019-01-09T08:21:05.359Z,8473.4
2019-01-09T08:22:01.239Z,8685.3
2019-01-09T08:23:01.682Z,8901.0
2019-01-09T08:24:01.097Z,9050.9
2019-01-09T08:25:01.131Z,9193.1
2019-01-09T08:26:01.093Z,9396.2
2019-01-09T08:27:01.238Z,9607.0
2019-01-09T08:28:01.092Z,9732.9
2019-01-09T08:29:01.157Z,9923.3
2019-01-09T08:30:01.129Z,10111.4
2019-01-09T08:31:01.197Z,10271.5
2019-01-09T08:32:01.238Z,10424.5
2019-01-09T08:33:01.093Z,10521.0
2019-01-09T08:34:01.092Z,10702.7
2019-01-09T08:35:01.130Z,10995.4
2019-01-09T08:36:02.160Z,11231.3
2019-01-09T08:37:01.238Z,11533.4
2019-01-09T08:38:02.826Z,11723.6
2019-01-09T08:39:01.098Z,12101.2
2019-01-09T08:40:01.128Z,12614.0
2019-01-09T08:41:01.093Z,13014.6
2019-01-09T08:42:01.271Z,13457.2
2019-01-09T08:43:01.095Z,13950.3
2019-01-09T08:44:01.095Z,14592.5
2019-01-09T08:45:01.132Z,15160.7
2019-01-09T08:46:01.098Z,15743.7
2019-01-09T08:47:01.236Z,16167.7
2019-01-09T08:48:01.096Z,16668.4
2019-01-09T08:49:01.994Z,17072.7
2019-01-09T08:50:01.131Z,17371.1
2019-01-09T08:51:01.158Z,17950.8
2019-01-09T08:52:01.238Z,18402.5
2019-01-09T08:53:01.100Z,18872.3
2019-01-09T08:54:01.100Z,19352.0
2019-01-09T08:55:01.209Z,19528.0
2019-01-09T08:56:01.098Z,19927.3
2019-01-09T08:57:01.238Z,20241.6
2019-01-09T08:58:01.100Z,20350.0
2019-01-09T08:59:01.099Z,20301.3
2019-01-09T09:00:01.195Z,20241.9
2019-01-09T09:02:01.360Z,20077.5
2019-01-09T09:03:01.086Z,20009.7
2019-01-09T09:04:01.083Z,19783.4
2019-01-09T09:05:01.085Z,19627.9
2019-01-09T09:06:01.088Z,19510.4
2019-01-09T09:07:01.232Z,19011.7
2019-01-09T09:08:01.088Z,18641.1
2019-01-09T09:09:01.090Z,18405.9
2019-01-09T09:10:01.088Z,18013.4
2019-01-09T09:11:01.616Z,17905.0
2019-01-09T09:12:01.233Z,17668.0
2019-01-09T09:13:01.090Z,17469.5
2019-01-09T09:14:01.087Z,17615.5
2019-01-09T09:15:01.087Z,18927.4
2019-01-09T09:16:01.090Z,20298.0
2019-01-09T09:17:01.234Z,20535.6
2019-01-09T09:18:01.089Z,20984.8
2019-01-09T09:19:01.099Z,21637.7
2019-01-09T09:20:01.128Z,22215.8
2019-01-09T09:21:01.098Z,22722.9
2019-01-09T09:22:01.311Z,23795.4
2019-01-09T09:23:01.095Z,25886.7
2019-01-09T09:24:01.092Z,28035.3
2019-01-09T09:25:01.131Z,29455.5
2019-01-09T09:26:01.098Z,31155.5
2019-01-09T09:27:01.249Z,32633.7
2019-01-09T09:28:01.093Z,34008.1
2019-01-09T09:29:02.093Z,35077.6
2019-01-09T09:30:01.130Z,34963.9
2019-01-09T09:31:01.093Z,34866.9
2019-01-09T09:32:01.250Z,35276.9
2019-01-09T09:33:01.097Z,35795.2
2019-01-09T09:34:01.095Z,36801.9
2019-01-09T09:35:01.134Z,37501.4
2019-01-09T09:36:01.099Z,38009.5
2019-01-09T09:37:01.243Z,39059.8
2019-01-09T09:38:01.095Z,38224.8
2019-01-09T09:39:01.097Z,36929.5
2019-01-09T09:40:01.131Z,38740.1
2019-01-09T09:41:01.244Z,37952.7
2019-01-09T09:42:01.610Z,37173.4
2019-01-09T09:43:01.639Z,37120.3
2019-01-09T09:44:01.097Z,37019.2
2019-01-09T09:45:01.132Z,37463.0
2019-01-09T09:46:01.099Z,37736.3
2019-01-09T09:47:01.239Z,38912.1
2019-01-09T09:48:01.098Z,39850.3
2019-01-09T09:49:01.098Z,40006.0
2019-01-09T09:50:01.142Z,40882.9
2019-01-09T09:51:01.104Z,42446.8
2019-01-09T09:52:01.242Z,43396.0
2019-01-09T09:53:01.099Z,45457.9
2019-01-09T09:55:01.085Z,46343.4
2019-01-09T09:56:01.088Z,45559.4
2019-01-09T09:57:01.231Z,47688.7
2019-01-09T09:58:05.529Z,48323.2
2019-01-09T09:59:01.085Z,48621.7
2019-01-09T10:00:01.087Z,49609.5
2019-01-09T10:01:01.087Z,49631.3
2019-01-09T10:02:01.229Z,49943.6
2019-01-09T10:03:02.186Z,50420.4
2019-01-09T10:04:01.094Z,50379.1
2019-01-09T10:05:01.092Z,50099.5
2019-01-09T10:06:01.090Z,49579.7
2019-01-09T10:07:01.234Z,48495.3
2019-01-09T10:08:01.157Z,47981.0
2019-01-09T10:09:01.093Z,47485.5
2019-01-09T10:10:01.093Z,48189.2
2019-01-09T10:11:01.260Z,48291.5
2019-01-09T10:12:01.260Z,48362.5
2019-01-09T10:13:01.149Z,50092.4
2019-01-09T10:14:01.101Z,51538.3
2019-01-09T10:15:01.096Z,52509.6
2019-01-09T10:16:01.167Z,53871.3
2019-01-09T10:17:01.235Z,55134.1
2019-01-09T10:18:01.104Z,56064.3
2019-01-09T10:19:01.099Z,57510.5
2019-01-09T10:20:01.333Z,59317.7
2019-01-09T10:21:06.094Z,60955.8
2019-01-09T10:22:01.234Z,62710.1
2019-01-09T10:23:01.095Z,62923.9
2019-01-09T10:24:01.202Z,62419.1
2019-01-09T10:25:01.094Z,62059.5
2019-01-09T10:26:06.100Z,61881.3
2019-01-09T10:28:01.237Z,60749.5
2019-01-09T10:30:01.096Z,60749.5
2019-01-09T10:33:01.397Z,60735.2
2019-01-09T10:36:01.131Z,59905.7
2019-01-09T10:38:01.245Z,60549.5
2019-01-09T10:39:01.102Z,61549.8
2019-01-09T10:40:01.100Z,62699.5
2019-01-09T10:41:01.133Z,63559.4
2019-01-09T10:44:01.282Z,64199.1
2019-01-09T10:45:01.087Z,64199.1
2019-01-09T10:49:01.227Z,64213.4
2019-01-09T10:52:01.227Z,65042.9
2019-01-09T10:59:01.243Z,65535.0
2019-01-09T11:00:01.099Z,65535.0
2019-01-09T11:15:01.376Z,65535.0
2019-01-09T11:18:01.303Z,65322.5
2019-01-09T11:19:01.098Z,65118.5
2019-01-09T11:20:01.307Z,65100.3
2019-01-09T11:21:01.103Z,64365.9
2019-01-09T11:22:01.099Z,63616.7
2019-01-09T11:23:01.140Z,63281.6
2019-01-09T11:30:01.297Z,63281.6
2019-01-09T11:33:01.217Z,63270.7
2019-01-09T11:34:01.127Z,63483.2
2019-01-09T11:35:01.256Z,63687.3
2019-01-09T11:36:01.094Z,63705.5
2019-01-09T11:37:01.091Z,64439.8
2019-01-09T11:38:01.095Z,65189.0
2019-01-09T11:39:01.096Z,65524.1
2019-01-09T11:45:01.327Z,65285.4
2019-01-09T11:46:01.097Z,64433.7
2019-01-09T11:47:01.096Z,63962.3
2019-01-09T11:48:06.107Z,63899.9
2019-01-09T11:53:01.367Z,63359.9
2019-01-09T11:59:01.267Z,63202.3
2019-01-09T12:00:01.098Z,61966.9
2019-01-09T12:01:01.108Z,61670.2
2019-01-09T12:02:01.099Z,62141.7
2019-01-09T12:03:01.099Z,62214.9
2019-01-09T12:07:01.601Z,61563.8
2019-01-09T12:08:01.084Z,60522.1
2019-01-09T12:09:04.568Z,60468.9
2019-01-09T12:10:01.363Z,59566.8
2019-01-09T12:11:01.126Z,58933.3
2019-01-09T12:12:01.144Z,57940.9
2019-01-09T12:13:01.088Z,56845.1
2019-01-09T12:14:01.091Z,56244.3
2019-01-09T12:15:01.241Z,55849.7
2019-01-09T12:16:07.866Z,57323.9
2019-01-09T12:17:01.129Z,57472.7
2019-01-09T12:18:01.094Z,56064.3
2019-01-09T12:30:01.304Z,55503.0
2019-01-09T12:31:01.021Z,60519.0
2019-01-09T12:32:01.052Z,58647.0
2019-01-09T12:33:02.157Z,54396.5
2019-01-09T12:34:01.020Z,53419.0
2019-01-09T12:35:01.236Z,55388.5
2019-01-09T12:36:01.020Z,56572.4
2019-01-09T12:37:01.053Z,56382.0
2019-01-09T12:38:01.020Z,55362.0
2019-01-09T12:39:01.023Z,55381.2
2019-01-09T12:40:01.161Z,54885.8
2019-01-09T12:41:01.033Z,54518.4
2019-01-09T12:42:01.057Z,54752.6
2019-01-09T12:43:01.195Z,55170.9
2019-01-09T12:44:01.023Z,54864.7
2019-01-09T12:45:01.266Z,54123.2
2019-01-09T12:46:02.049Z,53044.4
2019-01-09T12:47:01.058Z,53031.1
2019-01-09T12:48:01.023Z,53712.9
2019-01-09T12:49:01.024Z,54032.5
2019-01-09T12:50:01.200Z,54052.4
2019-01-09T12:51:01.025Z,53831.2
2019-01-09T12:52:01.061Z,54178.3
2019-01-09T12:53:01.022Z,55142.9
2019-01-09T12:54:01.024Z,55808.3
2019-01-09T12:55:01.166Z,55285.0
2019-01-09T12:56:01.023Z,55141.4
2019-01-09T12:57:01.056Z,55120.9
2019-01-09T12:58:01.029Z,54841.5
2019-01-09T12:59:01.990Z,54938.3
2019-01-09T13:00:01.176Z,54882.0
2019-01-09T13:01:01.026Z,54561.1
2019-01-09T13:02:01.062Z,54194.5
2019-01-09T13:03:01.026Z,54104.3
2019-01-09T13:04:01.024Z,53481.4
2019-01-09T13:05:01.189Z,52278.0
2019-01-09T13:06:01.025Z,52623.1
2019-01-09T13:07:01.060Z,52637.9
2019-01-09T13:08:01.030Z,51777.7
2019-01-09T13:09:01.028Z,50599.0
2019-01-09T13:10:01.195Z,51437.2
2019-01-09T13:11:01.206Z,51540.0
2019-01-09T13:12:01.062Z,50632.3
2019-01-09T13:13:01.030Z,50192.9
2019-01-09T13:14:01.029Z,49644.0
2019-01-09T13:15:01.241Z,49496.5
2019-01-09T13:16:01.082Z,49548.4
2019-01-09T13:17:01.061Z,48788.2
2019-01-09T13:18:01.249Z,47652.6
2019-01-09T13:19:01.033Z,47244.1
2019-01-09T13:20:01.174Z,47430.1
2019-01-09T13:21:01.027Z,46250.2
2019-01-09T13:22:01.078Z,44894.7
2019-01-09T13:23:01.029Z,44173.1
2019-01-09T13:24:01.073Z,43223.9
2019-01-09T13:25:01.201Z,42147.2
2019-01-09T13:26:01.030Z,41414.4
2019-01-09T13:27:01.093Z,41308.5
2019-01-09T13:28:01.029Z,40683.9
2019-01-09T13:29:01.028Z,39871.5
2019-01-09T13:30:01.169Z,39446.3
2019-01-09T13:31:01.032Z,39145.9
2019-01-09T13:32:01.030Z,39097.5
2019-01-09T13:33:01.032Z,39417.7
2019-01-09T13:34:01.029Z,39511.1
2019-01-09T13:35:01.241Z,38525.0
2019-01-09T13:36:01.035Z,37773.6
2019-01-09T13:37:01.037Z,37992.4
2019-01-09T13:38:01.034Z,37860.9
2019-01-09T13:39:01.036Z,37524.5
2019-01-09T13:40:01.173Z,36958.3
2019-01-09T13:41:01.030Z,36463.0
2019-01-09T13:42:01.754Z,35987.5
2019-01-09T13:43:01.035Z,35321.5
2019-01-09T13:44:01.058Z,35146.2
2019-01-09T13:45:01.270Z,34671.5
2019-01-09T13:46:01.034Z,33624.9
2019-01-09T13:47:01.031Z,32908.3
2019-01-09T13:48:01.031Z,32210.3
2019-01-09T13:49:01.059Z,31685.5
2019-01-09T13:50:01.171Z,31356.3
2019-01-09T13:51:01.030Z,30587.1
2019-01-09T13:52:01.032Z,29241.7
2019-01-09T13:53:01.075Z,28742.1
2019-01-09T13:54:01.056Z,28749.5
2019-01-09T13:55:01.175Z,28410.3
2019-01-09T13:56:01.033Z,28057.7
2019-01-09T13:57:01.036Z,27681.7
2019-01-09T13:58:01.032Z,27270.4
2019-01-09T13:59:01.071Z,26949.1
2019-01-09T14:00:01.186Z,26953.1
2019-01-09T14:01:01.032Z,26836.7
2019-01-09T14:02:01.034Z,26618.8
2019-01-09T14:03:01.034Z,26632.9
2019-01-09T14:04:01.066Z,26503.1
2019-01-09T14:05:01.200Z,26212.6
2019-01-09T14:06:01.035Z,26169.7
2019-01-09T14:07:01.156Z,26277.4
2019-01-09T14:08:01.035Z,26108.1
2019-01-09T14:09:01.069Z,25851.7
2019-01-09T14:10:01.307Z,25607.5
2019-01-09T14:11:01.039Z,25327.0
2019-01-09T14:12:01.032Z,25057.2
2019-01-09T14:13:01.058Z,24993.3
2019-01-09T14:14:01.031Z,25098.1
2019-01-09T14:15:01.238Z,24813.0
2019-01-09T14:16:01.034Z,24909.7
2019-01-09T14:17:01.045Z,24967.1
2019-01-09T14:18:01.032Z,24409.8
2019-01-09T14:19:01.035Z,23828.9
2019-01-09T14:20:01.173Z,23452.5
2019-01-09T14:21:01.031Z,23075.1
2019-01-09T14:22:01.032Z,22649.5
2019-01-09T14:23:01.031Z,22227.5
2019-01-09T14:24:01.882Z,21918.9
2019-01-09T14:25:01.185Z,21738.1
2019-01-09T14:26:01.042Z,21449.6
2019-01-09T14:27:01.034Z,20805.3
2019-01-09T14:28:01.532Z,20282.7
2019-01-09T14:29:01.036Z,19724.3
2019-01-09T14:30:01.284Z,19196.7
2019-01-09T14:31:01.037Z,18520.4
2019-01-09T14:32:01.090Z,17888.0
2019-01-09T14:33:01.036Z,17599.7
2019-01-09T14:34:01.035Z,17257.8
2019-01-09T14:35:01.183Z,16967.7
2019-01-09T14:36:01.042Z,16526.0
2019-01-09T14:37:01.038Z,16185.5
2019-01-09T14:38:01.036Z,15777.8
2019-01-09T14:39:01.038Z,15290.9
2019-01-09T14:40:01.202Z,14892.1
2019-01-09T14:41:01.079Z,14506.7
2019-01-09T14:42:01.041Z,14237.0
2019-01-09T14:43:01.041Z,13959.3
2019-01-09T14:44:01.042Z,13569.7
2019-01-09T14:45:01.209Z,13239.7
2019-01-09T14:46:01.073Z,12964.7
2019-01-09T14:47:01.041Z,12679.1
2019-01-09T14:48:01.041Z,12348.9
2019-01-09T14:49:01.044Z,11885.8
2019-01-09T14:50:02.046Z,11404.4
2019-01-09T14:51:01.071Z,11181.6
2019-01-09T14:52:01.041Z,10839.8
2019-01-09T14:53:01.042Z,10465.6
2019-01-09T14:54:01.108Z,10117.7
2019-01-09T14:55:01.186Z,9757.5
2019-01-09T14:56:01.042Z,9454.9
2019-01-09T14:57:01.044Z,9141.7
2019-01-09T14:58:01.044Z,8824.1
2019-01-09T14:59:01.075Z,8480.9
2019-01-09T15:00:01.190Z,8139.7
2019-01-09T15:01:01.041Z,7812.4
2019-01-09T15:02:01.041Z,7519.1
2019-01-09T15:03:01.044Z,7209.9
2019-01-09T15:04:01.115Z,6910.3
2019-01-09T15:05:01.222Z,6623.3
2019-01-09T15:06:01.997Z,6345.1
2019-01-09T15:07:01.615Z,6078.1
2019-01-09T15:08:01.044Z,5807.1
2019-01-09T15:09:01.082Z,5514.3
2019-01-09T15:10:01.190Z,5266.7
2019-01-09T15:11:01.047Z,4997.4
2019-01-09T15:12:01.045Z,4746.7
2019-01-09T15:13:01.061Z,4490.5
2019-01-09T15:14:01.088Z,4238.7
2019-01-09T15:15:01.192Z,4023.5
2019-01-09T15:16:01.049Z,3812.1
2019-01-09T15:17:01.051Z,3584.3
2019-01-09T15:18:01.046Z,3346.4
2019-01-09T15:19:01.072Z,3139.1
2019-01-09T15:20:02.325Z,2951.5
2019-01-09T15:21:01.046Z,2759.2
2019-01-09T15:22:01.048Z,2580.9
2019-01-09T15:23:01.048Z,2421.5
2019-01-09T15:24:08.306Z,2290.8
2019-01-09T15:25:01.186Z,2143.7
2019-01-09T15:26:02.456Z,1998.9
2019-01-09T15:27:02.738Z,1857.5
2019-01-09T15:28:01.051Z,1734.9
2019-01-09T15:29:01.074Z,1613.7
2019-01-09T15:30:01.199Z,1496.5
2019-01-09T15:31:01.049Z,1368.8
2019-01-09T15:32:01.170Z,1248.1
2019-01-09T15:33:01.053Z,1132.3
2019-01-09T15:34:01.077Z,1024.6
2019-01-09T15:35:01.190Z,925.1
2019-01-09T15:36:01.053Z,832.7
2019-01-09T15:37:01.051Z,746.7
2019-01-09T15:38:01.052Z,667.6
2019-01-09T15:39:01.082Z,593.2
2019-01-09T15:40:05.802Z,522.9
2019-01-09T15:41:01.051Z,460.8
2019-01-09T15:42:01.052Z,407.2
2019-01-09T15:43:01.053Z,357.3
2019-01-09T15:44:01.080Z,313.6
2019-01-09T15:45:04.209Z,277.4
2019-01-09T15:46:01.055Z,245.7
2019-01-09T15:47:01.284Z,215.8
2019-01-09T15:48:01.086Z,189.7
2019-01-09T15:49:01.058Z,165.8
2019-01-09T15:50:01.271Z,144.7
2019-01-09T15:51:01.055Z,126.4
2019-01-09T15:52:01.055Z,110.4
2019-01-09T15:53:01.098Z,96.2
2019-01-09T15:54:01.063Z,83.3
2019-01-09T15:55:01.266Z,72.3
2019-01-09T15:56:01.076Z,62.9
2019-01-09T15:57:01.058Z,54.9
2019-01-09T15:58:01.057Z,46.5
2019-01-09T15:59:01.094Z,39.6
2019-01-09T16:00:01.208Z,33.6
2019-01-09T16:01:01.057Z,28.7
2019-01-09T16:02:01.062Z,24.6
2019-01-09T16:03:01.085Z,21.3
2019-01-09T16:04:01.065Z,18.5
2019-01-09T16:05:01.375Z,16.1
2019-01-09T16:06:01.094Z,13.9
2019-01-09T16:07:01.064Z,11.9
2019-01-09T16:08:01.065Z,10.3
2019-01-09T16:09:01.059Z,8.9
2019-01-09T16:10:01.206Z,7.7
2019-01-09T16:11:01.062Z,6.7
2019-01-09T16:12:01.099Z,5.7
2019-01-09T16:13:01.062Z,4.8
2019-01-09T16:14:01.078Z,4.1
2019-01-09T16:15:01.202Z,3.6
2019-01-09T16:16:01.063Z,3.1
2019-01-09T16:17:01.964Z,2.7
2019-01-09T16:18:01.073Z,2.3
2019-01-09T16:19:01.068Z,2.0
2019-01-09T16:20:01.207Z,1.7
2019-01-09T16:21:01.063Z,1.5
2019-01-09T16:22:01.063Z,1.3
2019-01-09T16:23:01.097Z,1.1
2019-01-09T16:24:01.077Z,0.9
2019-01-09T16:25:01.202Z,0.8
2019-01-09T16:26:01.062Z,0.7
2019-01-09T16:27:01.064Z,0.5
2019-01-09T16:29:01.063Z,0.4
2019-01-09T16:30:01.271Z,0.3
2019-01-09T16:32:01.125Z,0.2
2019-01-09T16:33:01.063Z,0.1
